sensor_id;sensor_type;location;lat;lon;timestamp;pressure;altitude;pressure_sealevel;temperature;humidity
60897;BME280;46749;32.932;-117.130;2023-05-07T00:02:00;101551.81;;;16.30;60.30
60897;BME280;46749;32.932;-117.130;2023-05-07T00:04:26;101561.38;;;16.28;60.19
60897;BME280;46749;32.932;-117.130;2023-05-07T00:06:53;101550.03;;;16.29;60.39
60897;BME280;46749;32.932;-117.130;2023-05-07T00:09:21;101552.66;;;16.29;60.49
60897;BME280;46749;32.932;-117.130;2023-05-07T00:11:47;101556.13;;;16.28;60.25
60897;BME280;46749;32.932;-117.130;2023-05-07T00:14:13;101552.66;;;16.29;60.21
60897;BME280;46749;32.932;-117.130;2023-05-07T00:16:39;101559.63;;;16.29;60.16
60897;BME280;46749;32.932;-117.130;2023-05-07T00:19:06;101550.91;;;16.28;60.09
60897;BME280;46749;32.932;-117.130;2023-05-07T00:21:32;101552.66;;;16.29;60.08
60897;BME280;46749;32.932;-117.130;2023-05-07T00:23:58;101557.91;;;16.29;60.12
60897;BME280;46749;32.932;-117.130;2023-05-07T00:26:24;101557.06;;;16.30;60.23
60897;BME280;46749;32.932;-117.130;2023-05-07T00:28:50;101562.25;;;16.29;60.27
60897;BME280;46749;32.932;-117.130;2023-05-07T00:31:16;101566.69;;;16.31;60.33
60897;BME280;46749;32.932;-117.130;2023-05-07T00:33:43;101554.41;;;16.29;60.21
60897;BME280;46749;32.932;-117.130;2023-05-07T00:36:09;101557.06;;;16.30;60.24
60897;BME280;46749;32.932;-117.130;2023-05-07T00:38:35;101564.91;;;16.30;60.17
60897;BME280;46749;32.932;-117.130;2023-05-07T00:41:01;101562.28;;;16.30;60.11
60897;BME280;46749;32.932;-117.130;2023-05-07T00:43:28;101554.44;;;16.30;60.10
60897;BME280;46749;32.932;-117.130;2023-05-07T00:45:55;101569.28;;;16.30;60.07
60897;BME280;46749;32.932;-117.130;2023-05-07T00:48:21;101554.44;;;16.30;60.09
60897;BME280;46749;32.932;-117.130;2023-05-07T00:50:50;101560.56;;;16.31;60.08
60897;BME280;46749;32.932;-117.130;2023-05-07T00:53:16;101554.44;;;16.30;60.15
60897;BME280;46749;32.932;-117.130;2023-05-07T00:55:42;101550.06;;;16.31;60.09
60897;BME280;46749;32.932;-117.130;2023-05-07T00:58:09;101544.81;;;16.31;59.97
60897;BME280;46749;32.932;-117.130;2023-05-07T01:00:35;101550.06;;;16.31;60.14
60897;BME280;46749;32.932;-117.130;2023-05-07T01:03:01;101550.97;;;16.31;60.15
60897;BME280;46749;32.932;-117.130;2023-05-07T01:05:28;101553.56;;;16.31;60.09
60897;BME280;46749;32.932;-117.130;2023-05-07T01:07:57;101558.81;;;16.31;60.13
60897;BME280;46749;32.932;-117.130;2023-05-07T01:10:24;101545.72;;;16.31;60.16
60897;BME280;46749;32.932;-117.130;2023-05-07T01:12:51;101550.97;;;16.31;60.13
60897;BME280;46749;32.932;-117.130;2023-05-07T01:15:18;101556.19;;;16.31;60.07
60897;BME280;46749;32.932;-117.130;2023-05-07T01:17:44;101556.19;;;16.31;60.00
60897;BME280;46749;32.932;-117.130;2023-05-07T01:20:11;101551.84;;;16.32;60.10
60897;BME280;46749;32.932;-117.130;2023-05-07T01:22:38;101554.47;;;16.32;59.89
60897;BME280;46749;32.932;-117.130;2023-05-07T01:25:06;101557.97;;;16.32;59.90
60897;BME280;46749;32.932;-117.130;2023-05-07T01:27:35;101555.34;;;16.32;60.01
60897;BME280;46749;32.932;-117.130;2023-05-07T01:30:06;101560.59;;;16.32;60.04
60897;BME280;46749;32.932;-117.130;2023-05-07T01:32:52;101568.44;;;16.32;59.99
60897;BME280;46749;32.932;-117.130;2023-05-07T01:35:22;101565.84;;;16.32;60.17
60897;BME280;46749;32.932;-117.130;2023-05-07T01:37:50;101567.56;;;16.32;60.04
60897;BME280;46749;32.932;-117.130;2023-05-07T01:40:17;101563.22;;;16.32;60.08
60897;BME280;46749;32.932;-117.130;2023-05-07T01:42:43;101568.44;;;16.32;60.07
60897;BME280;46749;32.932;-117.130;2023-05-07T01:45:10;101565.84;;;16.32;59.89
60897;BME280;46749;32.932;-117.130;2023-05-07T01:47:37;101558.81;;;16.31;60.17
60897;BME280;46749;32.932;-117.130;2023-05-07T01:50:07;101557.97;;;16.32;59.98
60897;BME280;46749;32.932;-117.130;2023-05-07T01:52:38;101548.34;;;16.31;59.81
60897;BME280;46749;32.932;-117.130;2023-05-07T01:55:06;101561.44;;;16.31;59.97
60897;BME280;46749;32.932;-117.130;2023-05-07T01:57:32;101553.56;;;16.31;59.78
60897;BME280;46749;32.932;-117.130;2023-05-07T01:59:58;101550.97;;;16.31;59.83
60897;BME280;46749;32.932;-117.130;2023-05-07T02:02:25;101557.97;;;16.32;59.93
60897;BME280;46749;32.932;-117.130;2023-05-07T02:04:51;101551.84;;;16.32;59.96
60897;BME280;46749;32.932;-117.130;2023-05-07T02:07:17;101558.81;;;16.31;59.82
60897;BME280;46749;32.932;-117.130;2023-05-07T02:09:43;101553.56;;;16.31;59.96
60897;BME280;46749;32.932;-117.130;2023-05-07T02:12:09;101551.81;;;16.30;59.96
60897;BME280;46749;32.932;-117.130;2023-05-07T02:14:36;101554.44;;;16.30;60.06
60897;BME280;46749;32.932;-117.130;2023-05-07T02:17:02;101560.56;;;16.31;60.00
60897;BME280;46749;32.932;-117.130;2023-05-07T02:19:28;101559.66;;;16.30;59.91
60897;BME280;46749;32.932;-117.130;2023-05-07T02:21:56;101560.56;;;16.31;59.89
60897;BME280;46749;32.932;-117.130;2023-05-07T02:24:22;101558.78;;;16.30;60.07
60897;BME280;46749;32.932;-117.130;2023-05-07T02:26:48;101557.91;;;16.29;59.97
60897;BME280;46749;32.932;-117.130;2023-05-07T02:29:14;101564.03;;;16.30;60.00
60897;BME280;46749;32.932;-117.130;2023-05-07T02:31:40;101569.28;;;16.30;59.84
60897;BME280;46749;32.932;-117.130;2023-05-07T02:34:07;101568.38;;;16.29;59.97
60897;BME280;46749;32.932;-117.130;2023-05-07T02:36:33;101564.00;;;16.28;59.92
60897;BME280;46749;32.932;-117.130;2023-05-07T02:38:59;101569.28;;;16.30;59.96
60897;BME280;46749;32.932;-117.130;2023-05-07T02:41:26;101573.63;;;16.29;59.99
60897;BME280;46749;32.932;-117.130;2023-05-07T02:43:53;101574.47;;;16.28;60.00
60897;BME280;46749;32.932;-117.130;2023-05-07T02:46:19;101573.63;;;16.29;60.01
60897;BME280;46749;32.932;-117.130;2023-05-07T02:48:46;101575.38;;;16.29;59.99
60897;BME280;46749;32.932;-117.130;2023-05-07T02:51:12;101584.13;;;16.29;60.04
60897;BME280;46749;32.932;-117.130;2023-05-07T02:53:38;101588.47;;;16.29;60.02
60897;BME280;46749;32.932;-117.130;2023-05-07T02:56:04;101588.47;;;16.29;60.05
60897;BME280;46749;32.932;-117.130;2023-05-07T02:58:32;101582.34;;;16.28;60.10
60897;BME280;46749;32.932;-117.130;2023-05-07T03:00:58;101582.34;;;16.28;60.00
60897;BME280;46749;32.932;-117.130;2023-05-07T03:03:24;101586.66;;;16.28;59.74
60897;BME280;46749;32.932;-117.130;2023-05-07T03:05:50;101587.59;;;16.28;59.94
60897;BME280;46749;32.932;-117.130;2023-05-07T03:08:17;101598.06;;;16.28;60.08
60897;BME280;46749;32.932;-117.130;2023-05-07T03:10:43;101592.84;;;16.28;59.90
60897;BME280;46749;32.932;-117.130;2023-05-07T03:13:09;101588.41;;;16.27;59.91
60897;BME280;46749;32.932;-117.130;2023-05-07T03:15:36;101598.06;;;16.28;60.02
60897;BME280;46749;32.932;-117.130;2023-05-07T03:18:02;101603.31;;;16.28;59.74
60897;BME280;46749;32.932;-117.130;2023-05-07T03:20:28;101591.03;;;16.27;60.06
60897;BME280;46749;32.932;-117.130;2023-05-07T03:22:55;101596.28;;;16.27;60.05
60897;BME280;46749;32.932;-117.130;2023-05-07T03:25:21;101595.38;;;16.27;59.80
60897;BME280;46749;32.932;-117.130;2023-05-07T03:27:47;101603.25;;;16.27;59.90
60897;BME280;46749;32.932;-117.130;2023-05-07T03:30:13;101600.63;;;16.27;59.98
60897;BME280;46749;32.932;-117.130;2023-05-07T03:32:40;101601.50;;;16.27;59.97
60897;BME280;46749;32.932;-117.130;2023-05-07T03:35:06;101600.59;;;16.25;60.07
60897;BME280;46749;32.932;-117.130;2023-05-07T03:37:33;101605.00;;;16.26;59.92
60897;BME280;46749;32.932;-117.130;2023-05-07T03:39:59;101597.97;;;16.25;59.91
60897;BME280;46749;32.932;-117.130;2023-05-07T03:42:25;101604.09;;;16.26;59.82
60897;BME280;46749;32.932;-117.130;2023-05-07T03:44:51;101597.09;;;16.25;60.01
60897;BME280;46749;32.932;-117.130;2023-05-07T03:47:18;101608.47;;;16.25;60.11
60897;BME280;46749;32.932;-117.130;2023-05-07T03:49:44;101607.56;;;16.25;60.07
60897;BME280;46749;32.932;-117.130;2023-05-07T03:52:10;101610.19;;;16.25;60.01
60897;BME280;46749;32.932;-117.130;2023-05-07T03:54:36;101607.56;;;16.25;60.01
60897;BME280;46749;32.932;-117.130;2023-05-07T03:57:03;101611.09;;;16.25;59.82
60897;BME280;46749;32.932;-117.130;2023-05-07T03:59:29;101619.78;;;16.24;59.97
60897;BME280;46749;32.932;-117.130;2023-05-07T04:01:55;101610.16;;;16.23;59.92
60897;BME280;46749;32.932;-117.130;2023-05-07T04:04:21;101617.19;;;16.24;60.09
60897;BME280;46749;32.932;-117.130;2023-05-07T04:06:47;101621.53;;;16.24;59.97
60897;BME280;46749;32.932;-117.130;2023-05-07T04:09:13;101615.41;;;16.23;59.88
60897;BME280;46749;32.932;-117.130;2023-05-07T04:11:40;101612.81;;;16.25;59.99
60897;BME280;46749;32.932;-117.130;2023-05-07T04:14:06;101611.94;;;16.24;59.81
60897;BME280;46749;32.932;-117.130;2023-05-07T04:16:34;101611.06;;;16.24;59.97
60897;BME280;46749;32.932;-117.130;2023-05-07T04:19:00;101621.53;;;16.24;60.00
60897;BME280;46749;32.932;-117.130;2023-05-07T04:21:26;101618.91;;;16.24;59.91
60897;BME280;46749;32.932;-117.130;2023-05-07T04:23:52;101622.41;;;16.24;59.91
60897;BME280;46749;32.932;-117.130;2023-05-07T04:26:18;101621.53;;;16.24;59.84
60897;BME280;46749;32.932;-117.130;2023-05-07T04:28:46;101620.72;;;16.26;60.10
60897;BME280;46749;32.932;-117.130;2023-05-07T04:31:12;101621.59;;;16.27;59.92
60897;BME280;46749;32.932;-117.130;2023-05-07T04:33:39;101624.28;;;16.28;59.96
60897;BME280;46749;32.932;-117.130;2023-05-07T04:36:05;101627.81;;;16.30;59.90
60897;BME280;46749;32.932;-117.130;2023-05-07T04:38:31;101626.13;;;16.32;59.93
60897;BME280;46749;32.932;-117.130;2023-05-07T04:41:03;101617.41;;;16.33;59.77
60897;BME280;46749;32.932;-117.130;2023-05-07T04:43:29;101623.50;;;16.32;59.83
60897;BME280;46749;32.932;-117.130;2023-05-07T04:45:56;101626.13;;;16.32;59.96
60897;BME280;46749;32.932;-117.130;2023-05-07T04:48:22;101626.97;;;16.31;59.97
60897;BME280;46749;32.932;-117.130;2023-05-07T04:50:49;101627.81;;;16.30;59.99
60897;BME280;46749;32.932;-117.130;2023-05-07T04:53:19;101646.16;;;16.29;60.01
60897;BME280;46749;32.932;-117.130;2023-05-07T04:55:45;101641.72;;;16.28;60.12
60897;BME280;46749;32.932;-117.130;2023-05-07T04:58:12;101640.84;;;16.27;60.14
60897;BME280;46749;32.932;-117.130;2023-05-07T05:00:38;101643.41;;;16.26;60.19
60897;BME280;46749;32.932;-117.130;2023-05-07T05:03:06;101637.28;;;16.25;59.92
60897;BME280;46749;32.932;-117.130;2023-05-07T05:05:33;101638.16;;;16.24;60.12
60897;BME280;46749;32.932;-117.130;2023-05-07T05:07:59;101638.16;;;16.24;60.08
60897;BME280;46749;32.932;-117.130;2023-05-07T05:10:25;101639.00;;;16.23;59.88
60897;BME280;46749;32.932;-117.130;2023-05-07T05:12:51;101639.84;;;16.22;59.77
60897;BME280;46749;32.932;-117.130;2023-05-07T05:15:18;101650.34;;;16.22;59.99
60897;BME280;46749;32.932;-117.130;2023-05-07T05:17:44;101638.94;;;16.22;60.00
60897;BME280;46749;32.932;-117.130;2023-05-07T05:20:10;101652.94;;;16.22;59.96
60897;BME280;46749;32.932;-117.130;2023-05-07T05:22:37;101658.19;;;16.22;59.88
60897;BME280;46749;32.932;-117.130;2023-05-07T05:25:04;101659.00;;;16.21;59.80
60897;BME280;46749;32.932;-117.130;2023-05-07T05:27:30;101659.00;;;16.21;59.88
60897;BME280;46749;32.932;-117.130;2023-05-07T05:29:56;101661.63;;;16.21;59.90
60897;BME280;46749;32.932;-117.130;2023-05-07T05:32:22;101657.25;;;16.20;59.95
60897;BME280;46749;32.932;-117.130;2023-05-07T05:34:48;101656.38;;;16.21;59.99
60897;BME280;46749;32.932;-117.130;2023-05-07T05:37:15;101662.47;;;16.20;59.88
60897;BME280;46749;32.932;-117.130;2023-05-07T05:39:41;101667.69;;;16.18;59.87
60897;BME280;46749;32.932;-117.130;2023-05-07T05:42:08;101664.22;;;16.19;59.85
60897;BME280;46749;32.932;-117.130;2023-05-07T05:44:34;101665.91;;;16.17;59.86
60897;BME280;46749;32.932;-117.130;2023-05-07T05:47:00;101662.41;;;16.17;60.02
60897;BME280;46749;32.932;-117.130;2023-05-07T05:49:26;101665.88;;;16.16;60.03
60897;BME280;46749;32.932;-117.130;2023-05-07T05:51:52;101665.00;;;16.15;59.79
60897;BME280;46749;32.932;-117.130;2023-05-07T05:54:18;101669.38;;;16.16;59.77
60897;BME280;46749;32.932;-117.130;2023-05-07T05:56:45;101666.78;;;16.16;60.03
60897;BME280;46749;32.932;-117.130;2023-05-07T05:59:11;101664.06;;;16.15;59.97
60897;BME280;46749;32.932;-117.130;2023-05-07T06:01:37;101657.94;;;16.14;59.84
60897;BME280;46749;32.932;-117.130;2023-05-07T06:04:04;101661.41;;;16.13;59.94
60897;BME280;46749;32.932;-117.130;2023-05-07T06:06:30;101664.94;;;16.14;59.70
60897;BME280;46749;32.932;-117.130;2023-05-07T06:08:57;101660.53;;;16.13;59.89
60897;BME280;46749;32.932;-117.130;2023-05-07T06:11:23;101662.28;;;16.12;59.76
60897;BME280;46749;32.932;-117.130;2023-05-07T06:13:50;101658.75;;;16.12;59.85
60897;BME280;46749;32.932;-117.130;2023-05-07T06:16:16;101662.25;;;16.11;59.83
60897;BME280;46749;32.932;-117.130;2023-05-07T06:18:42;101657.84;;;16.10;59.75
60897;BME280;46749;32.932;-117.130;2023-05-07T06:21:09;101664.81;;;16.09;59.97
60897;BME280;46749;32.932;-117.130;2023-05-07T06:23:36;101667.44;;;16.09;59.92
60897;BME280;46749;32.932;-117.130;2023-05-07T06:26:02;101666.53;;;16.09;59.73
60897;BME280;46749;32.932;-117.130;2023-05-07T06:28:28;101664.75;;;16.08;60.04
60897;BME280;46749;32.932;-117.130;2023-05-07T06:31:11;101662.13;;;16.08;60.01
60897;BME280;46749;32.932;-117.130;2023-05-07T06:33:37;101662.97;;;16.07;59.80
60897;BME280;46749;32.932;-117.130;2023-05-07T06:36:03;101662.09;;;16.06;59.87
60897;BME280;46749;32.932;-117.130;2023-05-07T06:38:30;101663.84;;;16.06;59.90
60897;BME280;46749;32.932;-117.130;2023-05-07T06:40:56;101671.69;;;16.06;59.88
60897;BME280;46749;32.932;-117.130;2023-05-07T06:43:22;101664.69;;;16.05;59.98
60897;BME280;46749;32.932;-117.130;2023-05-07T06:45:49;101671.59;;;16.03;60.03
60897;BME280;46749;32.932;-117.130;2023-05-07T06:48:15;101673.38;;;16.04;59.87
60897;BME280;46749;32.932;-117.130;2023-05-07T06:50:41;101672.50;;;16.03;59.93
60897;BME280;46749;32.932;-117.130;2023-05-07T06:53:08;101674.19;;;16.03;59.74
60897;BME280;46749;32.932;-117.130;2023-05-07T06:55:34;101674.19;;;16.03;59.77
60897;BME280;46749;32.932;-117.130;2023-05-07T06:58:00;101667.19;;;16.02;59.93
60897;BME280;46749;32.932;-117.130;2023-05-07T07:00:27;101669.81;;;16.02;59.85
60897;BME280;46749;32.932;-117.130;2023-05-07T07:02:54;101664.53;;;16.00;59.80
60897;BME280;46749;32.932;-117.130;2023-05-07T07:05:20;101659.28;;;16.00;59.72
60897;BME280;46749;32.932;-117.130;2023-05-07T07:07:47;101664.53;;;16.00;59.85
60897;BME280;46749;32.932;-117.130;2023-05-07T07:10:22;101672.34;;;15.99;59.75
60897;BME280;46749;32.932;-117.130;2023-05-07T07:12:49;101671.47;;;15.98;59.77
60897;BME280;46749;32.932;-117.130;2023-05-07T07:15:16;101653.97;;;15.97;59.81
60897;BME280;46749;32.932;-117.130;2023-05-07T07:17:42;101655.72;;;15.97;59.81
60897;BME280;46749;32.932;-117.130;2023-05-07T07:20:09;101652.19;;;15.96;59.76
60897;BME280;46749;32.932;-117.130;2023-05-07T07:22:35;101661.84;;;15.97;59.66
60897;BME280;46749;32.932;-117.130;2023-05-07T07:25:01;101661.84;;;15.97;59.76
60897;BME280;46749;32.932;-117.130;2023-05-07T07:27:27;101664.41;;;15.96;59.68
60897;BME280;46749;32.932;-117.130;2023-05-07T07:29:53;101665.25;;;15.95;59.61
60897;BME280;46749;32.932;-117.130;2023-05-07T07:32:20;101670.47;;;15.95;59.75
60897;BME280;46749;32.932;-117.130;2023-05-07T07:34:46;101667.88;;;15.95;59.58
60897;BME280;46749;32.932;-117.130;2023-05-07T07:37:12;101667.81;;;15.93;59.78
60897;BME280;46749;32.932;-117.130;2023-05-07T07:39:38;101669.56;;;15.93;59.44
60897;BME280;46749;32.932;-117.130;2023-05-07T07:42:05;101666.06;;;15.92;59.63
60897;BME280;46749;32.932;-117.130;2023-05-07T07:44:31;101666.94;;;15.93;59.77
60897;BME280;46749;32.932;-117.130;2023-05-07T07:46:57;101662.53;;;15.91;59.74
60897;BME280;46749;32.932;-117.130;2023-05-07T07:49:23;101661.66;;;15.91;59.73
60897;BME280;46749;32.932;-117.130;2023-05-07T07:51:49;101663.41;;;15.90;59.61
60897;BME280;46749;32.932;-117.130;2023-05-07T07:54:16;101665.94;;;15.89;59.73
60897;BME280;46749;32.932;-117.130;2023-05-07T07:56:43;101656.34;;;15.89;59.49
60897;BME280;46749;32.932;-117.130;2023-05-07T07:59:09;101658.09;;;15.89;59.62
60897;BME280;46749;32.932;-117.130;2023-05-07T08:01:35;101659.81;;;15.88;59.56
60897;BME280;46749;32.932;-117.130;2023-05-07T08:04:01;101660.66;;;15.87;59.68
60897;BME280;46749;32.932;-117.130;2023-05-07T08:06:29;101658.06;;;15.87;59.69
60897;BME280;46749;32.932;-117.130;2023-05-07T08:08:55;101658.91;;;15.86;60.01
60897;BME280;46749;32.932;-117.130;2023-05-07T08:11:21;101651.03;;;15.86;59.47
60897;BME280;46749;32.932;-117.130;2023-05-07T08:13:48;101649.28;;;15.85;59.77
60897;BME280;46749;32.932;-117.130;2023-05-07T08:16:14;101657.97;;;15.84;59.96
60897;BME280;46749;32.932;-117.130;2023-05-07T08:18:40;101649.28;;;15.85;59.59
60897;BME280;46749;32.932;-117.130;2023-05-07T08:21:07;101644.88;;;15.84;59.67
60897;BME280;46749;32.932;-117.130;2023-05-07T08:23:33;101649.16;;;15.82;59.41
60897;BME280;46749;32.932;-117.130;2023-05-07T08:26:00;101650.03;;;15.83;59.55
60897;BME280;46749;32.932;-117.130;2023-05-07T08:28:26;101653.56;;;15.83;59.44
60897;BME280;46749;32.932;-117.130;2023-05-07T08:30:52;101643.88;;;15.81;59.57
60897;BME280;46749;32.932;-117.130;2023-05-07T08:33:19;101652.63;;;15.81;59.60
60897;BME280;46749;32.932;-117.130;2023-05-07T08:35:45;101653.47;;;15.80;59.50
60897;BME280;46749;32.932;-117.130;2023-05-07T08:38:11;101649.94;;;15.78;59.38
60897;BME280;46749;32.932;-117.130;2023-05-07T08:40:39;101648.19;;;15.79;59.51
60897;BME280;46749;32.932;-117.130;2023-05-07T08:43:07;101647.31;;;15.78;59.35
60897;BME280;46749;32.932;-117.130;2023-05-07T08:45:34;101642.06;;;15.78;59.65
60897;BME280;46749;32.932;-117.130;2023-05-07T08:48:09;101632.41;;;15.77;59.63
60897;BME280;46749;32.932;-117.130;2023-05-07T08:50:38;101640.28;;;15.77;59.40
60897;BME280;46749;32.932;-117.130;2023-05-07T08:53:04;101638.50;;;15.76;59.55
60897;BME280;46749;32.932;-117.130;2023-05-07T08:55:31;101645.47;;;15.76;59.54
60897;BME280;46749;32.932;-117.130;2023-05-07T09:00:43;101641.09;;;15.75;59.42
60897;BME280;46749;32.932;-117.130;2023-05-07T09:03:09;101640.19;;;15.74;59.42
60897;BME280;46749;32.932;-117.130;2023-05-07T09:05:39;101646.31;;;15.75;59.46
60897;BME280;46749;32.932;-117.130;2023-05-07T09:08:07;101643.66;;;15.73;59.25
60897;BME280;46749;32.932;-117.130;2023-05-07T09:10:34;101643.66;;;15.73;59.36
60897;BME280;46749;32.932;-117.130;2023-05-07T09:13:00;101646.25;;;15.72;59.36
60897;BME280;46749;32.932;-117.130;2023-05-07T09:15:28;101647.13;;;15.72;59.40
60897;BME280;46749;32.932;-117.130;2023-05-07T09:17:54;101645.31;;;15.71;59.55
60897;BME280;46749;32.932;-117.130;2023-05-07T09:20:26;101643.56;;;15.70;59.41
60897;BME280;46749;32.932;-117.130;2023-05-07T09:22:55;101641.78;;;15.69;59.48
60897;BME280;46749;32.932;-117.130;2023-05-07T09:25:29;101641.78;;;15.69;59.52
60897;BME280;46749;32.932;-117.130;2023-05-07T09:27:56;101640.00;;;15.68;59.41
60897;BME280;46749;32.932;-117.130;2023-05-07T09:30:22;101639.13;;;15.68;59.24
60897;BME280;46749;32.932;-117.130;2023-05-07T09:32:48;101638.25;;;15.67;59.37
60897;BME280;46749;32.932;-117.130;2023-05-07T09:35:16;101642.59;;;15.67;59.43
60897;BME280;46749;32.932;-117.130;2023-05-07T09:37:47;101639.94;;;15.65;59.24
60897;BME280;46749;32.932;-117.130;2023-05-07T09:40:24;101641.72;;;15.66;59.44
60897;BME280;46749;32.932;-117.130;2023-05-07T09:42:50;101629.47;;;15.65;59.37
60897;BME280;46749;32.932;-117.130;2023-05-07T09:45:37;101640.75;;;15.64;59.38
60897;BME280;46749;32.932;-117.130;2023-05-07T09:48:05;101635.50;;;15.64;59.29
60897;BME280;46749;32.932;-117.130;2023-05-07T09:50:36;101634.63;;;15.63;59.14
60897;BME280;46749;32.932;-117.130;2023-05-07T09:53:03;101630.25;;;15.62;59.38
60897;BME280;46749;32.932;-117.130;2023-05-07T09:55:30;101630.25;;;15.62;59.41
60897;BME280;46749;32.932;-117.130;2023-05-07T09:57:57;101638.97;;;15.63;59.38
60897;BME280;46749;32.932;-117.130;2023-05-07T10:00:25;101639.81;;;15.62;59.28
60897;BME280;46749;32.932;-117.130;2023-05-07T10:02:57;101639.88;;;15.63;59.27
60897;BME280;46749;32.932;-117.130;2023-05-07T10:05:24;101640.72;;;15.62;59.29
60897;BME280;46749;32.932;-117.130;2023-05-07T10:07:51;101635.47;;;15.62;59.41
60897;BME280;46749;32.932;-117.130;2023-05-07T10:10:18;101635.47;;;15.62;59.30
60897;BME280;46749;32.932;-117.130;2023-05-07T10:12:45;101625.00;;;15.62;59.19
60897;BME280;46749;32.932;-117.130;2023-05-07T10:15:12;101634.59;;;15.62;59.19
60897;BME280;46749;32.932;-117.130;2023-05-07T10:17:40;101631.84;;;15.59;59.18
60897;BME280;46749;32.932;-117.130;2023-05-07T10:20:07;101640.53;;;15.58;59.48
60897;BME280;46749;32.932;-117.130;2023-05-07T10:22:39;101629.25;;;15.59;59.32
60897;BME280;46749;32.932;-117.130;2023-05-07T10:25:21;101636.13;;;15.57;59.62
60897;BME280;46749;32.932;-117.130;2023-05-07T10:27:50;101623.03;;;15.57;59.40
60897;BME280;46749;32.932;-117.130;2023-05-07T10:30:46;101623.00;;;15.55;59.24
60897;BME280;46749;32.932;-117.130;2023-05-07T10:33:17;101627.41;;;15.56;59.33
60897;BME280;46749;32.932;-117.130;2023-05-07T10:35:46;101621.31;;;15.57;59.36
60897;BME280;46749;32.932;-117.130;2023-05-07T10:38:13;101623.94;;;15.57;59.39
60897;BME280;46749;32.932;-117.130;2023-05-07T10:40:40;101612.56;;;15.57;59.28
60897;BME280;46749;32.932;-117.130;2023-05-07T10:43:06;101618.66;;;15.56;59.36
60897;BME280;46749;32.932;-117.130;2023-05-07T10:45:33;101617.78;;;15.55;59.31
60897;BME280;46749;32.932;-117.130;2023-05-07T10:48:06;101620.38;;;15.55;59.29
60897;BME280;46749;32.932;-117.130;2023-05-07T10:50:32;101624.75;;;15.55;59.19
60897;BME280;46749;32.932;-117.130;2023-05-07T10:53:28;101616.88;;;15.55;59.17
60897;BME280;46749;32.932;-117.130;2023-05-07T10:56:32;101615.03;;;15.52;59.33
60897;BME280;46749;32.932;-117.130;2023-05-07T11:04:25;101611.53;;;15.52;59.19
60897;BME280;46749;32.932;-117.130;2023-05-07T11:15:07;101600.19;;;15.51;59.00
60897;BME280;46749;32.932;-117.130;2023-05-07T11:17:51;101605.41;;;15.51;59.27
60897;BME280;46749;32.932;-117.130;2023-05-07T11:20:18;101618.50;;;15.51;59.30
60897;BME280;46749;32.932;-117.130;2023-05-07T11:22:45;101602.75;;;15.50;59.30
60897;BME280;46749;32.932;-117.130;2023-05-07T11:25:17;101601.00;;;15.49;59.00
60897;BME280;46749;32.932;-117.130;2023-05-07T11:27:44;101604.47;;;15.48;59.18
60897;BME280;46749;32.932;-117.130;2023-05-07T11:30:17;101594.00;;;15.48;59.21
60897;BME280;46749;32.932;-117.130;2023-05-07T11:32:47;101598.34;;;15.47;59.08
60897;BME280;46749;32.932;-117.130;2023-05-07T11:35:15;101591.38;;;15.48;59.20
60897;BME280;46749;32.932;-117.130;2023-05-07T11:37:44;101591.38;;;15.48;59.07
60897;BME280;46749;32.932;-117.130;2023-05-07T11:40:12;101592.25;;;15.48;59.17
60897;BME280;46749;32.932;-117.130;2023-05-07T11:42:40;101598.38;;;15.49;59.27
60897;BME280;46749;32.932;-117.130;2023-05-07T11:45:09;101590.47;;;15.47;59.10
60897;BME280;46749;32.932;-117.130;2023-05-07T11:47:35;101588.75;;;15.48;59.02
60897;BME280;46749;32.932;-117.130;2023-05-07T11:50:06;101588.75;;;15.48;59.04
60897;BME280;46749;32.932;-117.130;2023-05-07T11:52:34;101586.97;;;15.47;58.97
60897;BME280;46749;32.932;-117.130;2023-05-07T11:55:01;101578.16;;;15.45;58.86
60897;BME280;46749;32.932;-117.130;2023-05-07T11:57:29;101578.16;;;15.45;58.96
60897;BME280;46749;32.932;-117.130;2023-05-07T11:59:56;101588.66;;;15.45;58.89
60897;BME280;46749;32.932;-117.130;2023-05-07T12:02:23;101586.00;;;15.43;59.13
60897;BME280;46749;32.932;-117.130;2023-05-07T12:04:53;101581.63;;;15.44;59.22
60897;BME280;46749;32.932;-117.130;2023-05-07T12:07:20;101578.16;;;15.45;58.96
60897;BME280;46749;32.932;-117.130;2023-05-07T12:09:47;101580.78;;;15.45;59.11
60897;BME280;46749;32.932;-117.130;2023-05-07T12:12:14;101584.25;;;15.44;58.93
60897;BME280;46749;32.932;-117.130;2023-05-07T12:14:42;101581.63;;;15.44;59.13
60897;BME280;46749;32.932;-117.130;2023-05-07T12:17:10;101583.38;;;15.43;58.95
60897;BME280;46749;32.932;-117.130;2023-05-07T12:19:38;101582.47;;;15.43;59.11
60897;BME280;46749;32.932;-117.130;2023-05-07T12:22:08;101585.94;;;15.42;59.07
60897;BME280;46749;32.932;-117.130;2023-05-07T12:24:49;101586.78;;;15.41;59.01
60897;BME280;46749;32.932;-117.130;2023-05-07T12:27:16;101581.56;;;15.41;59.13
60897;BME280;46749;32.932;-117.130;2023-05-07T12:29:50;101577.22;;;15.41;59.03
60897;BME280;46749;32.932;-117.130;2023-05-07T12:32:18;101582.47;;;15.43;59.08
60897;BME280;46749;32.932;-117.130;2023-05-07T12:34:45;101587.69;;;15.41;59.11
60897;BME280;46749;32.932;-117.130;2023-05-07T12:37:12;101592.84;;;15.39;59.09
60897;BME280;46749;32.932;-117.130;2023-05-07T12:39:44;101592.03;;;15.41;58.96